Time;durP1;ratioP1;P1;durP2;ratioP2;P2;SDS_P1;SDS_P2;PMS_P1;PMS_P2;Temp;Humidity;BMP_temperature;BMP_pressure;BME280_temperature;BME280_humidity;BME280_pressure;Samples;Min_cycle;Max_cycle;Signal;HPM_P1;HPM_P2
2023/05/15 00:02:07;;;;;;;11.07;7.35;;;;;;;17.92;49.27;100879.84;5016642;27;98938;-75
2023/05/15 00:04:34;;;;;;;12.10;7.43;;;;;;;17.68;49.77;100881.41;5020402;27;98734;-74
2023/05/15 00:07:02;;;;;;;11.40;7.38;;;;;;;17.70;49.36;100876.84;5021872;27;96830;-75
2023/05/15 00:09:28;;;;;;;13.70;7.97;;;;;;;17.57;49.63;100875.84;5020937;27;97039;-75
2023/05/15 00:11:54;;;;;;;11.35;7.00;;;;;;;17.68;49.35;100873.38;5014829;27;99386;-74
2023/05/15 00:14:21;;;;;;;10.73;6.75;;;;;;;17.77;49.09;100870.16;5026197;27;98782;-75
2023/05/15 00:16:47;;;;;;;11.18;7.30;;;;;;;18.08;48.35;100870.84;5021470;27;97805;-74
2023/05/15 00:19:13;;;;;;;16.30;7.47;;;;;;;18.24;47.94;100864.41;5024666;27;97146;-75
2023/05/15 00:21:40;;;;;;;11.80;8.00;;;;;;;18.19;47.92;100863.84;5023370;27;101468;-76
2023/05/15 00:24:08;;;;;;;12.05;7.22;;;;;;;18.34;47.46;100856.63;5023412;27;98946;-74
2023/05/15 00:26:34;;;;;;;10.43;7.32;;;;;;;18.33;47.28;100860.25;5019040;27;96790;-74
2023/05/15 00:29:00;;;;;;;13.98;7.45;;;;;;;18.24;47.71;100852.84;5024751;27;97609;-75
2023/05/15 00:31:27;;;;;;;10.57;6.88;;;;;;;18.37;47.39;100850.22;5022155;27;99107;-74
2023/05/15 00:33:53;;;;;;;11.95;7.10;;;;;;;18.22;47.46;100844.06;5021977;27;97957;-74
2023/05/15 00:36:20;;;;;;;13.20;7.22;;;;;;;18.05;49.30;100842.47;5025009;27;96734;-75
2023/05/15 00:38:47;;;;;;;12.77;7.72;;;;;;;18.01;49.79;100835.63;5028158;27;96855;-75
2023/05/15 00:41:16;;;;;;;12.07;7.82;;;;;;;18.03;49.98;100830.19;5017545;27;99016;-75
2023/05/15 00:43:45;;;;;;;15.13;8.25;;;;;;;17.83;50.36;100832.34;5021389;27;99576;-76
2023/05/15 00:46:13;;;;;;;15.82;7.20;;;;;;;17.77;50.24;100827.38;5021500;27;96844;-75
2023/05/15 00:48:39;;;;;;;9.82;7.65;;;;;;;17.78;49.96;100830.91;5025917;27;97370;-77
2023/05/15 00:51:06;;;;;;;12.20;7.43;;;;;;;17.81;49.81;100828.03;5020704;27;99194;-77
2023/05/15 00:53:32;;;;;;;11.43;7.32;;;;;;;17.76;50.05;100820.31;5028017;27;99359;-75
2023/05/15 00:55:59;;;;;;;11.35;8.68;;;;;;;17.71;50.36;100818.91;5021566;27;97169;-75
2023/05/15 00:58:28;;;;;;;13.85;7.85;;;;;;;17.70;50.44;100812.69;5028434;27;96870;-74
2023/05/15 01:00:55;;;;;;;14.00;8.10;;;;;;;17.56;50.91;100810.00;5017695;27;98991;-74
2023/05/15 01:03:21;;;;;;;11.70;7.65;;;;;;;17.54;50.94;100811.91;5017119;27;99709;-74
2023/05/15 01:05:47;;;;;;;13.65;8.10;;;;;;;17.43;51.19;100814.41;5024346;27;96774;-74
2023/05/15 01:08:20;;;;;;;15.77;7.90;;;;;;;17.31;51.61;100809.84;5010805;27;100584;-74
2023/05/15 01:10:48;;;;;;;11.52;7.60;;;;;;;17.37;51.31;100806.78;5028305;27;99205;-75
2023/05/15 01:13:15;;;;;;;14.00;7.53;;;;;;;17.41;51.19;100808.28;5017363;27;97802;-74
2023/05/15 01:15:43;;;;;;;13.18;8.02;;;;;;;17.54;50.68;100795.88;5027901;27;96879;-74
2023/05/15 01:18:09;;;;;;;14.48;8.73;;;;;;;17.36;50.91;100797.91;5029736;27;98964;-75
2023/05/15 01:20:49;;;;;;;16.58;7.93;;;;;;;17.50;50.39;100797.03;5024652;27;99070;-74
2023/05/15 01:23:23;;;;;;;9.82;7.82;;;;;;;17.31;51.04;100794.66;5023490;27;99218;-74
2023/05/15 01:26:08;;;;;;;12.23;7.53;;;;;;;17.16;51.38;100790.28;5029547;27;98747;-74
2023/05/15 01:28:42;;;;;;;13.07;7.88;;;;;;;17.10;51.64;100791.50;5019546;27;96809;-74
2023/05/15 01:31:16;;;;;;;14.35;7.78;;;;;;;16.93;52.06;100794.38;5027207;27;99085;-75
2023/05/15 01:33:46;;;;;;;8.82;7.53;;;;;;;16.87;51.94;100800.06;5019543;27;99400;-75
2023/05/15 01:36:16;;;;;;;17.00;8.98;;;;;;;16.99;51.38;100793.13;5027190;27;96943;-75
2023/05/15 01:38:46;;;;;;;12.57;7.72;;;;;;;17.42;50.13;100786.81;5023505;27;96849;-75
2023/05/15 01:41:17;;;;;;;11.75;7.72;;;;;;;17.61;49.56;100791.03;5022271;27;100503;-75
2023/05/15 01:43:49;;;;;;;12.52;7.53;;;;;;;17.23;50.82;100801.44;5022823;27;98979;-75
2023/05/15 01:46:21;;;;;;;16.80;8.63;;;;;;;16.93;51.97;100805.03;5029093;27;96846;-75
2023/05/15 01:48:50;;;;;;;13.60;8.98;;;;;;;17.37;50.42;100790.75;5024955;27;97365;-75
2023/05/15 01:51:19;;;;;;;15.40;8.65;;;;;;;17.47;49.81;100786.53;5025335;27;99809;-75
2023/05/15 01:53:46;;;;;;;11.48;8.75;;;;;;;17.37;50.19;100791.59;5017639;27;100574;-74
2023/05/15 01:56:15;;;;;;;11.48;8.20;;;;;;;17.50;49.66;100779.19;5021799;27;96917;-75
2023/05/15 01:58:42;;;;;;;11.50;8.13;;;;;;;17.30;50.16;100784.06;5026840;27;98868;-73
2023/05/15 02:01:11;;;;;;;15.57;8.57;;;;;;;17.17;51.10;100780.44;5030659;27;99492;-74
2023/05/15 02:03:37;;;;;;;13.23;8.40;;;;;;;17.13;52.40;100780.63;5017675;27;100574;-73
2023/05/15 02:06:05;;;;;;;13.13;8.30;;;;;;;17.00;52.61;100784.19;5022699;27;97208;-73
2023/05/15 02:08:32;;;;;;;10.55;8.02;;;;;;;16.89;53.03;100771.47;5024914;27;98695;-73
2023/05/15 02:11:01;;;;;;;12.10;8.00;;;;;;;16.80;52.87;100769.38;5025836;27;98979;-73
2023/05/15 02:13:28;;;;;;;11.02;8.80;;;;;;;17.37;51.34;100769.38;5020079;27;98720;-74
2023/05/15 02:15:55;;;;;;;10.23;7.53;;;;;;;17.00;52.19;100777.00;5026880;27;98587;-76
2023/05/15 02:18:23;;;;;;;12.20;8.40;;;;;;;17.13;51.88;100774.47;5024215;27;97255;-72
2023/05/15 02:20:50;;;;;;;11.60;9.35;;;;;;;17.50;50.54;100771.19;5030332;27;99369;-75
2023/05/15 02:23:16;;;;;;;12.55;8.85;;;;;;;17.04;51.89;100767.88;5029251;27;101954;-76
2023/05/15 02:25:52;;;;;;;9.82;8.35;;;;;;;17.08;51.93;100769.38;5025316;27;96759;-72
2023/05/15 02:28:28;;;;;;;16.15;9.32;;;;;;;17.22;51.79;100768.53;5024520;27;97289;-75
2023/05/15 02:30:57;;;;;;;13.43;9.38;;;;;;;17.03;52.85;100763.47;5030430;27;99106;-74
2023/05/15 02:33:31;;;;;;;14.15;9.70;;;;;;;17.10;52.32;100755.94;5020945;27;98733;-75
2023/05/15 02:36:02;;;;;;;14.90;8.68;;;;;;;16.86;53.00;100747.66;5017134;27;96874;-73
2023/05/15 02:38:33;;;;;;;12.95;8.73;;;;;;;17.10;52.53;100743.47;5023637;28;97039;-75
2023/05/15 02:41:00;;;;;;;11.98;9.10;;;;;;;17.23;52.31;100740.00;5024867;27;99619;-74
2023/05/15 02:43:28;;;;;;;14.60;8.15;;;;;;;17.34;51.60;100745.53;5026709;27;97773;-74
2023/05/15 02:45:56;;;;;;;13.18;9.10;;;;;;;17.35;51.15;100737.41;5026875;27;98795;-75
2023/05/15 02:48:24;;;;;;;11.57;8.45;;;;;;;17.32;51.71;100744.78;5025822;27;96916;-75
2023/05/15 02:50:53;;;;;;;15.02;9.00;;;;;;;17.40;51.50;100735.31;5027229;27;100997;-76
2023/05/15 02:53:19;;;;;;;13.65;9.15;;;;;;;17.17;51.86;100733.25;5031024;27;98934;-75
2023/05/15 02:55:46;;;;;;;16.40;9.32;;;;;;;17.20;51.78;100724.19;5021613;27;98912;-72
2023/05/15 02:58:12;;;;;;;16.15;9.10;;;;;;;17.20;51.78;100725.03;5026855;27;96964;-75
2023/05/15 03:00:39;;;;;;;25.20;8.57;;;;;;;17.11;52.34;100723.81;5024126;27;99370;-75
2023/05/15 03:03:05;;;;;;;12.13;8.60;;;;;;;17.22;52.60;100716.94;5025986;27;98892;-75
2023/05/15 03:05:31;;;;;;;19.50;8.38;;;;;;;17.10;53.06;100716.75;5025955;27;97038;-75
2023/05/15 03:08:00;;;;;;;13.35;9.23;;;;;;;17.09;53.02;100716.84;5028017;27;96862;-74
2023/05/15 03:10:26;;;;;;;11.82;8.30;;;;;;;17.21;53.02;100723.22;5014495;27;99571;-75
2023/05/15 03:12:57;;;;;;;13.95;9.18;;;;;;;17.36;52.50;100720.44;5021001;27;97681;-76
2023/05/15 03:15:23;;;;;;;13.85;9.23;;;;;;;17.29;53.02;100716.44;5023266;27;97189;-75
2023/05/15 03:17:49;;;;;;;13.77;9.20;;;;;;;17.28;52.55;100724.53;5020350;27;97230;-76
2023/05/15 03:20:16;;;;;;;13.93;8.48;;;;;;;17.55;51.70;100728.13;5025730;27;99179;-75
2023/05/15 03:22:43;;;;;;;14.60;9.05;;;;;;;17.47;51.73;100719.75;5018798;27;98076;-75
2023/05/15 03:25:11;;;;;;;11.50;9.07;;;;;;;17.26;52.20;100714.00;5018673;27;97540;-75
2023/05/15 03:27:37;;;;;;;11.07;8.75;;;;;;;17.18;52.61;100718.09;5019012;27;96927;-75
2023/05/15 03:30:05;;;;;;;13.35;8.77;;;;;;;17.48;52.33;100708.09;5019961;27;99197;-74
2023/05/15 03:32:31;;;;;;;18.55;8.73;;;;;;;17.37;52.54;100705.28;5026370;27;99121;-74
2023/05/15 03:34:58;;;;;;;12.15;9.13;;;;;;;17.16;53.03;100699.50;5030881;27;96864;-75
2023/05/15 03:37:24;;;;;;;10.05;8.40;;;;;;;17.11;53.40;100705.13;5028525;27;97177;-75
2023/05/15 03:39:50;;;;;;;11.48;8.93;;;;;;;17.33;52.84;100701.06;5022907;27;98869;-75
2023/05/15 03:42:22;;;;;;;20.02;9.82;;;;;;;17.51;52.02;100702.59;5022996;27;98859;-76
2023/05/15 03:44:48;;;;;;;18.77;9.75;;;;;;;17.71;51.40;100696.84;5024346;27;96847;-74
2023/05/15 03:47:15;;;;;;;15.60;9.32;;;;;;;17.68;51.22;100693.47;5023188;27;97234;-74
2023/05/15 03:49:41;;;;;;;14.60;9.18;;;;;;;17.42;52.39;100695.16;5022894;27;101724;-74
2023/05/15 03:52:08;;;;;;;14.77;8.93;;;;;;;17.39;52.39;100704.19;5022263;27;101409;-73
2023/05/15 03:54:35;;;;;;;11.77;8.80;;;;;;;17.31;52.79;100690.50;5026090;27;96823;-74
2023/05/15 03:57:03;;;;;;;16.95;9.20;;;;;;;17.42;52.80;100696.00;5026869;27;97623;-73
2023/05/15 03:59:30;;;;;;;13.75;9.52;;;;;;;17.38;52.90;100693.66;5026436;27;98908;-77
2023/05/15 04:01:57;;;;;;;14.18;9.43;;;;;;;17.02;53.90;100688.81;5017861;27;99310;-74
2023/05/15 04:04:23;;;;;;;15.15;9.98;;;;;;;17.54;52.95;100695.22;5024511;27;96796;-72
2023/05/15 04:06:50;;;;;;;12.52;9.55;;;;;;;17.54;53.02;100692.53;5025840;27;96929;-73
2023/05/15 04:09:16;;;;;;;15.68;9.45;;;;;;;17.55;53.05;100693.41;5024179;27;99188;-73
2023/05/15 04:11:42;;;;;;;15.88;9.52;;;;;;;17.68;52.81;100697.00;5022782;27;98868;-73
2023/05/15 04:14:09;;;;;;;17.30;9.48;;;;;;;17.72;52.27;100693.16;5018608;27;96869;-75
2023/05/15 04:16:37;;;;;;;18.90;9.93;;;;;;;17.65;52.13;100686.53;5029894;27;96945;-74
2023/05/15 04:19:03;;;;;;;18.45;10.50;;;;;;;18.03;51.11;100691.16;5017824;27;98345;-75
2023/05/15 04:21:29;;;;;;;17.95;10.10;;;;;;;17.96;51.10;100687.19;5020759;27;100679;-74
2023/05/15 04:23:56;;;;;;;19.75;11.32;;;;;;;18.20;50.28;100696.22;5032074;27;96738;-74
2023/05/15 04:26:22;;;;;;;18.60;10.15;;;;;;;18.25;50.54;100691.41;5032946;27;98114;-73
2023/05/15 04:28:49;;;;;;;17.92;10.68;;;;;;;18.09;50.86;100698.75;5017013;27;98915;-74
2023/05/15 04:31:15;;;;;;;18.08;10.13;;;;;;;18.46;50.19;100689.94;5021166;27;99251;-74
2023/05/15 04:33:43;;;;;;;19.52;10.95;;;;;;;18.48;48.76;100685.34;5027591;27;97669;-74
2023/05/15 04:36:09;;;;;;;18.35;10.32;;;;;;;18.59;47.17;100685.47;5030319;27;97020;-74
2023/05/15 04:38:36;;;;;;;20.88;10.85;;;;;;;18.93;46.93;100683.09;5023708;27;99361;-73
2023/05/15 04:41:02;;;;;;;16.40;11.02;;;;;;;18.90;46.55;100680.66;5024984;27;99107;-75
2023/05/15 04:43:28;;;;;;;18.63;10.40;;;;;;;18.81;46.35;100675.94;5030809;27;96815;-75
2023/05/15 04:45:55;;;;;;;19.45;11.90;;;;;;;18.64;46.13;100688.69;5032859;27;97053;-75
2023/05/15 04:48:21;;;;;;;17.35;10.68;;;;;;;19.02;45.29;100674.44;5019132;27;99556;-74
2023/05/15 04:50:50;;;;;;;19.85;9.43;;;;;;;19.18;43.79;100685.75;5028986;27;97984;-74
2023/05/15 04:53:17;;;;;;;19.58;10.55;;;;;;;19.33;43.10;100681.97;5028010;27;97765;-75
2023/05/15 04:55:43;;;;;;;17.25;10.00;;;;;;;19.31;43.33;100683.03;5030522;27;97006;-74
2023/05/15 04:58:10;;;;;;;19.52;10.25;;;;;;;19.75;41.56;100685.16;5018536;28;99114;-76
2023/05/15 05:00:36;;;;;;;14.60;9.63;;;;;;;19.66;41.92;100683.16;5033301;27;100099;-75
2023/05/15 05:03:03;;;;;;;22.20;10.50;;;;;;;19.39;42.27;100686.88;5023857;27;97296;-75
2023/05/15 05:05:29;;;;;;;15.43;10.05;;;;;;;19.27;42.99;100678.88;5025619;27;96986;-76
2023/05/15 05:07:57;;;;;;;16.92;10.43;;;;;;;19.30;43.49;100679.50;5024905;27;98645;-75
2023/05/15 05:10:23;;;;;;;17.35;9.07;;;;;;;19.08;44.30;100682.03;5026044;27;100661;-75
2023/05/15 05:12:50;;;;;;;19.10;9.98;;;;;;;19.21;44.64;100673.97;5025518;27;96880;-76
2023/05/15 05:15:16;;;;;;;16.35;10.57;;;;;;;19.50;45.49;100676.25;5028445;27;97269;-75
2023/05/15 05:17:43;;;;;;;17.40;10.07;;;;;;;19.63;45.50;100676.19;5026409;27;97915;-75
2023/05/15 05:20:11;;;;;;;15.27;9.80;;;;;;;19.52;45.40;100664.56;5021666;27;99175;-75
2023/05/15 05:22:38;;;;;;;19.13;9.85;;;;;;;19.77;44.59;100653.72;5027890;27;96793;-75
2023/05/15 05:25:07;;;;;;;16.90;8.57;;;;;;;19.78;41.27;100658.13;5017800;27;98071;-75
2023/05/15 05:27:34;;;;;;;14.32;9.35;;;;;;;20.00;42.14;100647.50;5024749;27;101356;-75
2023/05/15 05:30:00;;;;;;;21.73;8.85;;;;;;;20.35;41.27;100649.34;5013480;27;97695;-75
2023/05/15 05:32:26;;;;;;;16.92;8.85;;;;;;;20.06;41.31;100638.13;5010004;27;97729;-75
2023/05/15 05:34:53;;;;;;;14.77;8.25;;;;;;;20.17;40.27;100647.03;5014687;27;97883;-76
2023/05/15 05:37:19;;;;;;;14.60;8.27;;;;;;;20.38;39.90;100641.03;5018159;27;98986;-75
2023/05/15 05:39:46;;;;;;;11.55;7.75;;;;;;;20.75;39.29;100642.50;5027145;27;98098;-75
2023/05/15 05:42:14;;;;;;;13.52;7.78;;;;;;;21.25;37.65;100640.31;5026189;27;97632;-75
2023/05/15 05:44:40;;;;;;;13.63;7.88;;;;;;;21.48;37.02;100640.13;5023651;27;97675;-75
2023/05/15 05:47:07;;;;;;;12.77;7.93;;;;;;;21.81;36.34;100633.78;5023643;27;101440;-75
2023/05/15 05:49:33;;;;;;;13.57;8.38;;;;;;;21.67;36.31;100644.84;5029689;27;98908;-75
2023/05/15 05:52:06;;;;;;;13.30;7.32;;;;;;;21.58;36.45;100639.38;5031491;27;96854;-75
2023/05/15 05:54:33;;;;;;;18.73;7.22;;;;;;;21.71;36.35;100640.94;5032145;27;97248;-75
2023/05/15 05:56:59;;;;;;;12.30;7.13;;;;;;;21.85;36.51;100631.72;5028493;27;99517;-75
2023/05/15 05:59:28;;;;;;;12.20;6.88;;;;;;;21.92;34.69;100632.91;5022813;27;98747;-76
2023/05/15 06:01:54;;;;;;;10.52;5.90;;;;;;;22.04;34.67;100617.59;5029082;27;96820;-76
2023/05/15 06:04:20;;;;;;;8.15;5.82;;;;;;;21.89;35.04;100627.75;5033150;27;96796;-75
2023/05/15 06:06:48;;;;;;;15.73;6.45;;;;;;;22.04;34.92;100618.44;5017251;27;101225;-76
2023/05/15 06:09:15;;;;;;;26.75;7.70;;;;;;;22.35;34.71;100621.19;5027739;27;97694;-76
2023/05/15 06:11:42;;;;;;;14.35;7.00;;;;;;;22.16;34.86;100612.00;5021866;27;96927;-76
2023/05/15 06:14:08;;;;;;;17.98;7.47;;;;;;;21.84;35.51;100619.25;5028243;27;97186;-75
2023/05/15 06:16:36;;;;;;;15.98;7.57;;;;;;;21.96;35.16;100614.69;5027076;27;98944;-75
2023/05/15 06:19:02;;;;;;;10.10;6.03;;;;;;;21.91;35.41;100617.75;5016129;27;99109;-74
2023/05/15 06:21:29;;;;;;;14.52;6.55;;;;;;;21.48;36.26;100615.09;5024881;27;96810;-73
2023/05/15 06:23:55;;;;;;;9.65;6.22;;;;;;;21.87;35.85;100617.13;5032127;27;97173;-74
2023/05/15 06:26:22;;;;;;;12.38;6.57;;;;;;;22.02;35.99;100603.41;5029614;27;102765;-73
2023/05/15 06:28:48;;;;;;;17.40;7.47;;;;;;;21.72;36.72;100602.31;5020898;27;98869;-73
2023/05/15 06:31:16;;;;;;;16.00;6.50;;;;;;;21.84;35.92;100593.19;5021758;27;96918;-75
2023/05/15 06:33:43;;;;;;;17.20;7.10;;;;;;;21.74;35.84;100604.84;5016381;27;97233;-75
2023/05/15 06:36:10;;;;;;;15.13;6.93;;;;;;;21.78;35.79;100604.47;5015187;27;98859;-74
2023/05/15 06:38:36;;;;;;;13.77;6.72;;;;;;;21.81;35.99;100604.19;5016199;27;98359;-74
2023/05/15 06:41:24;;;;;;;9.77;6.90;;;;;;;21.87;34.95;100595.63;5034412;27;96872;-76
2023/05/15 06:43:50;;;;;;;16.65;6.40;;;;;;;22.00;34.90;100594.59;5021863;27;97662;-76
2023/05/15 06:46:17;;;;;;;16.02;6.60;;;;;;;22.12;34.75;100593.56;5027264;27;97776;-75
2023/05/15 06:48:45;;;;;;;16.80;7.63;;;;;;;22.39;34.92;100584.91;5031034;27;99076;-74
2023/05/15 06:51:12;;;;;;;20.17;7.07;;;;;;;22.49;34.48;100594.78;5025184;27;97006;-76
2023/05/15 06:53:38;;;;;;;21.17;6.70;;;;;;;22.44;34.36;100586.25;5030842;27;96984;-75
2023/05/15 06:56:05;;;;;;;15.88;6.43;;;;;;;22.30;34.85;100591.97;5026953;27;98964;-76
2023/05/15 06:58:31;;;;;;;20.73;5.90;;;;;;;22.31;34.54;100587.44;5025832;27;98895;-74
2023/05/15 07:00:57;;;;;;;14.85;6.35;;;;;;;22.20;34.81;100580.28;5028064;27;96763;-74
2023/05/15 07:03:24;;;;;;;14.80;5.75;;;;;;;22.42;34.48;100577.44;5032336;27;96794;-74
2023/05/15 07:05:53;;;;;;;15.38;6.63;;;;;;;22.40;34.40;100571.31;5030115;27;99025;-75
2023/05/15 07:08:19;;;;;;;13.18;5.90;;;;;;;22.55;34.08;100578.06;5030341;27;98477;-75
2023/05/15 07:10:46;;;;;;;16.55;6.75;;;;;;;22.55;34.21;100580.75;5033604;27;96690;-74
2023/05/15 07:13:12;;;;;;;14.60;7.00;;;;;;;22.86;33.89;100581.63;5032109;27;96974;-75
2023/05/15 07:15:39;;;;;;;15.52;6.22;;;;;;;22.89;33.80;100577.81;5030629;27;99346;-75
2023/05/15 07:18:06;;;;;;;14.32;6.10;;;;;;;22.98;33.85;100577.81;5025072;27;99185;-76
2023/05/15 07:20:32;;;;;;;15.00;7.97;;;;;;;23.22;33.80;100576.59;5030473;27;97654;-74
2023/05/15 07:23:00;;;;;;;14.15;6.20;;;;;;;23.36;33.60;100577.06;5025315;27;96949;-74
2023/05/15 07:25:26;;;;;;;13.70;6.55;;;;;;;23.51;33.24;100579.34;5025963;27;99393;-75
2023/05/15 07:27:53;;;;;;;11.70;6.70;;;;;;;23.50;33.67;100572.28;5026999;27;98735;-74
2023/05/15 07:30:19;;;;;;;9.95;6.13;;;;;;;23.76;32.71;100571.53;5031683;27;96614;-75
2023/05/15 07:32:46;;;;;;;17.77;6.47;;;;;;;23.85;31.91;100567.13;5026761;27;96971;-75
2023/05/15 07:35:12;;;;;;;9.75;5.88;;;;;;;23.92;31.81;100562.88;5029921;27;100172;-75
2023/05/15 07:37:38;;;;;;;11.57;5.40;;;;;;;23.87;31.72;100567.84;5027071;27;99147;-74
2023/05/15 07:40:07;;;;;;;13.70;5.53;;;;;;;24.10;32.07;100562.97;5031119;27;96734;-75
2023/05/15 07:42:34;;;;;;;14.82;5.70;;;;;;;24.37;30.88;100562.22;5022920;27;96909;-74
2023/05/15 07:45:00;;;;;;;15.95;5.75;;;;;;;24.36;31.26;100558.66;5030451;27;99006;-75
2023/05/15 07:47:27;;;;;;;19.42;6.03;;;;;;;24.49;30.41;100553.78;5025491;27;98846;-74
2023/05/15 07:49:53;;;;;;;9.13;5.32;;;;;;;24.21;30.57;100555.63;5030359;27;96836;-75
2023/05/15 07:52:20;;;;;;;13.30;4.95;;;;;;;24.21;30.38;100552.06;5029330;27;97168;-75
2023/05/15 07:54:46;;;;;;;10.68;5.35;;;;;;;24.25;30.22;100558.00;5031024;27;99012;-75
2023/05/15 07:57:14;;;;;;;13.25;5.00;;;;;;;24.26;30.16;100554.31;5027260;27;99502;-75
2023/05/15 07:59:40;;;;;;;12.02;5.28;;;;;;;24.31;30.22;100557.41;5028957;27;96958;-75
2023/05/15 08:02:07;;;;;;;8.55;4.82;;;;;;;24.28;30.51;100542.38;5024920;27;101363;-75
2023/05/15 08:04:33;;;;;;;11.32;4.90;;;;;;;24.34;30.62;100536.38;5025697;27;98480;-75
2023/05/15 08:06:59;;;;;;;9.55;4.28;;;;;;;24.44;30.88;100536.34;5024115;27;99533;-76
2023/05/15 08:09:26;;;;;;;13.73;5.07;;;;;;;24.26;30.84;100527.31;5021333;27;96932;-75
2023/05/15 08:11:55;;;;;;;11.52;4.57;;;;;;;24.57;30.20;100536.84;5029842;27;97925;-74
2023/05/15 08:14:23;;;;;;;8.38;4.95;;;;;;;24.77;29.70;100530.34;5022577;27;98605;-75
2023/05/15 08:16:50;;;;;;;12.02;4.90;;;;;;;24.79;29.52;100525.66;5025513;27;101551;-74
2023/05/15 08:19:16;;;;;;;8.25;4.57;;;;;;;25.11;29.31;100530.59;5022140;27;97565;-75
2023/05/15 08:21:43;;;;;;;8.45;4.95;;;;;;;24.90;29.90;100527.31;5021985;27;96995;-75
2023/05/15 08:24:09;;;;;;;10.23;4.60;;;;;;;25.24;28.91;100528.38;5023526;27;98945;-76
2023/05/15 08:26:35;;;;;;;12.20;5.05;;;;;;;25.10;29.01;100525.34;5024200;27;99087;-74
2023/05/15 08:29:02;;;;;;;12.60;6.40;;;;;;;25.06;29.09;100519.41;5014279;27;97273;-74
2023/05/15 08:31:30;;;;;;;21.33;4.50;;;;;;;24.96;29.51;100519.44;5023534;27;96895;-75
2023/05/15 08:33:56;;;;;;;9.00;4.57;;;;;;;25.10;29.51;100523.50;5027471;27;98949;-75
2023/05/15 08:36:22;;;;;;;15.05;4.88;;;;;;;24.66;29.63;100510.78;5020966;27;98024;-75
2023/05/15 08:38:49;;;;;;;12.38;4.80;;;;;;;24.85;29.85;100513.38;5025745;27;97321;-75
2023/05/15 08:41:30;;;;;;;9.90;4.50;;;;;;;24.81;29.73;100512.00;5022123;27;97131;-74
2023/05/15 08:43:58;;;;;;;11.65;4.45;;;;;;;24.84;29.46;100511.69;5026705;27;99057;-76
2023/05/15 08:46:24;;;;;;;10.02;4.55;;;;;;;24.85;29.27;100510.69;5023855;27;99020;-75
2023/05/15 08:48:54;;;;;;;9.80;4.80;;;;;;;24.55;30.31;100498.31;5024680;27;96851;-75
2023/05/15 08:51:22;;;;;;;10.18;4.65;;;;;;;24.56;30.38;100497.31;5026464;27;96959;-75
2023/05/15 08:53:49;;;;;;;10.85;4.43;;;;;;;24.33;30.58;100499.56;5027682;27;99423;-75
2023/05/15 08:56:16;;;;;;;8.68;4.82;;;;;;;24.43;30.51;100489.56;5023336;27;99325;-75
2023/05/15 08:58:43;;;;;;;7.28;4.50;;;;;;;24.58;30.45;100484.53;5022081;27;97075;-75
2023/05/15 09:01:11;;;;;;;9.73;4.88;;;;;;;24.58;30.19;100492.63;5023165;27;97282;-75
2023/05/15 09:03:38;;;;;;;11.13;4.65;;;;;;;24.60;30.63;100491.50;5020623;27;99039;-75
2023/05/15 09:06:07;;;;;;;7.82;4.40;;;;;;;24.57;30.68;100493.63;5015111;27;99218;-74
2023/05/15 09:08:34;;;;;;;12.90;4.32;;;;;;;24.33;31.13;100490.63;5022517;27;97347;-75
2023/05/15 09:11:03;;;;;;;9.10;4.07;;;;;;;24.27;30.57;100485.81;5019994;27;97593;-75
2023/05/15 09:13:29;;;;;;;8.75;4.97;;;;;;;24.43;30.55;100486.88;5021271;27;99284;-75
2023/05/15 09:15:56;;;;;;;9.75;5.25;;;;;;;24.66;30.61;100487.34;5025661;27;99005;-77
2023/05/15 09:18:22;;;;;;;11.38;4.35;;;;;;;24.68;30.58;100490.72;5023513;27;96782;-75
2023/05/15 09:20:50;;;;;;;8.10;4.13;;;;;;;24.82;30.34;100482.09;5022294;27;96950;-75
2023/05/15 09:23:25;;;;;;;5.25;4.07;;;;;;;25.24;29.39;100481.56;5020571;27;99043;-74
2023/05/15 09:25:55;;;;;;;8.32;4.03;;;;;;;25.55;29.53;100473.88;5016078;27;99567;-76
2023/05/15 09:28:27;;;;;;;10.05;5.88;;;;;;;25.55;29.27;100476.56;5021909;27;96702;-76
2023/05/15 09:30:58;;;;;;;9.88;4.60;;;;;;;25.37;30.08;100477.44;5014270;27;96864;-75
2023/05/15 09:33:27;;;;;;;11.20;4.45;;;;;;;25.64;29.42;100473.81;5027036;27;99370;-75
2023/05/15 09:35:54;;;;;;;8.55;4.30;;;;;;;25.63;29.54;100472.13;5025168;27;98109;-76
2023/05/15 09:38:21;;;;;;;12.85;5.05;;;;;;;25.49;30.26;100469.94;5024462;27;96784;-75
2023/05/15 09:40:48;;;;;;;8.82;4.78;;;;;;;25.15;30.17;100477.06;5019995;27;96856;-75
2023/05/15 09:43:15;;;;;;;5.75;4.00;;;;;;;25.40;30.03;100465.47;5025251;27;99047;-74
2023/05/15 09:45:42;;;;;;;7.78;3.70;;;;;;;25.39;29.92;100463.78;5029091;27;98872;-75
2023/05/15 09:48:10;;;;;;;10.52;4.07;;;;;;;25.38;30.66;100456.66;5019794;27;99319;-75
2023/05/15 09:50:38;;;;;;;8.82;4.47;;;;;;;25.27;30.78;100456.91;5021434;27;96877;-75
2023/05/15 09:53:05;;;;;;;8.95;4.15;;;;;;;25.67;30.03;100442.88;5018037;27;99276;-75
2023/05/15 09:55:32;;;;;;;12.95;5.80;;;;;;;26.01;29.45;100456.44;5025166;27;98823;-75
2023/05/15 09:58:08;;;;;;;12.23;4.80;;;;;;;25.99;29.31;100455.78;5024979;27;98776;-75
2023/05/15 10:00:35;;;;;;;9.02;4.38;;;;;;;26.12;29.17;100453.50;5026207;27;97148;-75
2023/05/15 10:03:03;;;;;;;7.95;4.45;;;;;;;26.30;28.59;100459.69;5025562;27;98411;-76
2023/05/15 10:05:30;;;;;;;10.18;4.45;;;;;;;26.45;28.59;100457.22;5030806;27;98918;-74
2023/05/15 10:07:57;;;;;;;12.50;4.88;;;;;;;26.55;28.61;100461.50;5026566;27;97263;-75
2023/05/15 10:10:25;;;;;;;8.15;4.75;;;;;;;26.62;28.56;100461.69;5026928;27;97577;-74
2023/05/15 10:12:53;;;;;;;9.10;4.53;;;;;;;26.78;28.58;100453.59;5025643;27;101632;-75
2023/05/15 10:15:22;;;;;;;7.40;4.10;;;;;;;26.52;29.08;100456.38;5027776;27;98473;-76
2023/05/15 10:17:50;;;;;;;7.45;4.45;;;;;;;26.49;28.81;100445.88;5024822;27;97608;-74
2023/05/15 10:20:18;;;;;;;7.68;4.00;;;;;;;26.30;29.07;100454.28;5018970;27;97575;-75
2023/05/15 10:22:46;;;;;;;13.23;5.80;;;;;;;26.01;28.89;100457.31;5025500;27;97742;-75
2023/05/15 10:25:18;;;;;;;9.73;4.10;;;;;;;26.30;28.80;100459.69;5025367;27;100076;-76
2023/05/15 10:27:46;;;;;;;7.70;3.80;;;;;;;26.18;28.51;100458.25;5028650;27;97285;-74
2023/05/15 10:30:15;;;;;;;9.10;3.78;;;;;;;25.79;29.01;100457.88;5026960;27;97427;-75
2023/05/15 10:32:45;;;;;;;9.02;4.18;;;;;;;25.97;29.62;100458.66;5029209;27;97846;-75
2023/05/15 10:35:12;;;;;;;18.42;4.35;;;;;;;25.97;28.47;100458.66;5026635;27;99247;-75
2023/05/15 10:37:40;;;;;;;6.55;2.92;;;;;;;25.89;28.04;100449.63;5020773;27;97310;-74
2023/05/15 10:40:09;;;;;;;8.85;3.83;;;;;;;25.42;28.54;100458.03;5023803;27;97240;-74
2023/05/15 10:42:37;;;;;;;7.72;3.42;;;;;;;25.46;28.42;100448.63;5024036;27;99290;-74
2023/05/15 10:45:05;;;;;;;10.23;3.60;;;;;;;25.32;28.51;100451.88;5025756;27;99576;-75
2023/05/15 10:47:32;;;;;;;4.93;3.70;;;;;;;25.21;29.40;100449.41;5022882;27;97069;-76
2023/05/15 10:50:00;;;;;;;6.80;4.30;;;;;;;25.27;29.51;100441.50;5019408;27;97552;-75
2023/05/15 10:52:26;;;;;;;10.50;3.90;;;;;;;25.45;29.67;100436.09;5020341;27;103350;-75
2023/05/15 10:54:53;;;;;;;11.55;3.80;;;;;;;25.62;29.85;100437.94;5023535;27;97997;-74
2023/05/15 10:57:20;;;;;;;8.20;3.00;;;;;;;25.46;29.71;100432.41;5025852;27;97032;-74
2023/05/15 10:59:47;;;;;;;7.07;3.13;;;;;;;25.30;30.38;100424.13;5022907;27;98111;-74
2023/05/15 11:02:22;;;;;;;12.88;2.95;;;;;;;25.17;29.97;100419.13;5025907;27;99002;-75
2023/05/15 11:04:54;;;;;;;6.97;2.72;;;;;;;25.33;31.95;100413.88;5023989;27;99272;-74
2023/05/15 11:07:23;;;;;;;4.63;2.97;;;;;;;25.59;31.46;100411.22;5022139;27;98426;-75
2023/05/15 11:09:50;;;;;;;11.40;2.97;;;;;;;25.68;30.97;100409.41;5025978;27;97477;-74
2023/05/15 11:12:16;;;;;;;3.75;2.80;;;;;;;25.71;30.61;100404.53;5025701;27;99063;-75
2023/05/15 11:15:04;;;;;;;5.32;2.90;;;;;;;25.65;31.19;100402.47;5025147;27;99309;-75
2023/05/15 11:17:32;;;;;;;5.07;2.55;;;;;;;25.63;30.57;100396.34;5026024;27;96877;-76
2023/05/15 11:19:59;;;;;;;6.00;2.80;;;;;;;26.14;29.80;100402.72;5017464;28;97105;-74